sensor_id;sensor_type;location;lat;lon;timestamp;P1;durP1;ratioP1;P2;durP2;ratioP2
6113;SDS011;3087;48.392;10.836;2023-03-13T00:02:09;5.27;;;2.33;;
6113;SDS011;3087;48.392;10.836;2023-03-13T00:04:35;6.23;;;2.13;;
6113;SDS011;3087;48.392;10.836;2023-03-13T00:07:00;3.87;;;2.40;;
6113;SDS011;3087;48.392;10.836;2023-03-13T00:09:26;3.17;;;2.37;;
6113;SDS011;3087;48.392;10.836;2023-03-13T00:11:51;6.30;;;2.23;;
6113;SDS011;3087;48.392;10.836;2023-03-13T00:14:17;3.03;;;2.33;;
6113;SDS011;3087;48.392;10.836;2023-03-13T00:16:43;4.13;;;2.23;;
6113;SDS011;3087;48.392;10.836;2023-03-13T00:19:08;4.03;;;2.23;;
6113;SDS011;3087;48.392;10.836;2023-03-13T00:21:34;3.53;;;2.20;;
6113;SDS011;3087;48.392;10.836;2023-03-13T00:24:05;3.50;;;2.37;;
6113;SDS011;3087;48.392;10.836;2023-03-13T00:26:33;4.87;;;2.33;;
6113;SDS011;3087;48.392;10.836;2023-03-13T00:28:58;4.10;;;2.80;;
6113;SDS011;3087;48.392;10.836;2023-03-13T00:31:25;7.57;;;2.40;;
6113;SDS011;3087;48.392;10.836;2023-03-13T00:33:53;3.23;;;2.03;;
6113;SDS011;3087;48.392;10.836;2023-03-13T00:36:26;3.73;;;2.40;;
6113;SDS011;3087;48.392;10.836;2023-03-13T00:38:54;3.47;;;2.37;;
6113;SDS011;3087;48.392;10.836;2023-03-13T00:41:21;5.27;;;2.43;;
6113;SDS011;3087;48.392;10.836;2023-03-13T00:43:49;4.17;;;2.30;;
6113;SDS011;3087;48.392;10.836;2023-03-13T00:46:16;3.87;;;2.20;;
6113;SDS011;3087;48.392;10.836;2023-03-13T00:48:43;5.97;;;2.43;;
6113;SDS011;3087;48.392;10.836;2023-03-13T00:51:09;5.77;;;2.40;;
6113;SDS011;3087;48.392;10.836;2023-03-13T00:53:35;4.33;;;2.10;;
6113;SDS011;3087;48.392;10.836;2023-03-13T00:58:32;3.83;;;1.97;;
6113;SDS011;3087;48.392;10.836;2023-03-13T01:01:33;3.83;;;2.10;;
6113;SDS011;3087;48.392;10.836;2023-03-13T01:03:56;4.77;;;2.30;;
6113;SDS011;3087;48.392;10.836;2023-03-13T01:06:26;5.60;;;2.63;;
6113;SDS011;3087;48.392;10.836;2023-03-13T01:09:00;4.50;;;2.60;;
6113;SDS011;3087;48.392;10.836;2023-03-13T01:11:28;2.63;;;2.00;;
6113;SDS011;3087;48.392;10.836;2023-03-13T01:13:56;4.63;;;2.23;;
6113;SDS011;3087;48.392;10.836;2023-03-13T01:16:29;4.00;;;2.30;;
6113;SDS011;3087;48.392;10.836;2023-03-13T01:19:04;5.50;;;2.30;;
6113;SDS011;3087;48.392;10.836;2023-03-13T01:21:32;3.73;;;2.20;;
6113;SDS011;3087;48.392;10.836;2023-03-13T01:23:58;5.70;;;2.17;;
6113;SDS011;3087;48.392;10.836;2023-03-13T01:26:24;3.53;;;2.07;;
6113;SDS011;3087;48.392;10.836;2023-03-13T01:28:50;7.27;;;2.30;;
6113;SDS011;3087;48.392;10.836;2023-03-13T01:31:17;6.23;;;2.60;;
6113;SDS011;3087;48.392;10.836;2023-03-13T01:33:47;3.23;;;2.10;;
6113;SDS011;3087;48.392;10.836;2023-03-13T01:36:14;4.73;;;2.10;;
6113;SDS011;3087;48.392;10.836;2023-03-13T01:38:40;4.37;;;2.07;;
6113;SDS011;3087;48.392;10.836;2023-03-13T01:41:06;4.20;;;2.17;;
6113;SDS011;3087;48.392;10.836;2023-03-13T01:43:35;4.93;;;2.07;;
6113;SDS011;3087;48.392;10.836;2023-03-13T01:51:27;3.33;;;2.30;;
6113;SDS011;3087;48.392;10.836;2023-03-13T01:56:50;3.27;;;2.30;;
6113;SDS011;3087;48.392;10.836;2023-03-13T01:59:25;5.03;;;2.17;;
6113;SDS011;3087;48.392;10.836;2023-03-13T02:01:54;4.43;;;2.27;;
6113;SDS011;3087;48.392;10.836;2023-03-13T02:04:24;3.67;;;2.43;;
6113;SDS011;3087;48.392;10.836;2023-03-13T02:06:54;3.70;;;2.27;;
6113;SDS011;3087;48.392;10.836;2023-03-13T02:09:25;5.90;;;2.60;;
6113;SDS011;3087;48.392;10.836;2023-03-13T02:14:24;5.00;;;2.17;;
6113;SDS011;3087;48.392;10.836;2023-03-13T02:16:52;4.07;;;2.20;;
6113;SDS011;3087;48.392;10.836;2023-03-13T02:19:26;3.07;;;2.10;;
6113;SDS011;3087;48.392;10.836;2023-03-13T02:22:04;5.27;;;2.43;;
6113;SDS011;3087;48.392;10.836;2023-03-13T02:27:05;3.77;;;2.20;;
6113;SDS011;3087;48.392;10.836;2023-03-13T02:29:31;3.83;;;2.00;;
6113;SDS011;3087;48.392;10.836;2023-03-13T02:31:57;3.27;;;2.30;;
6113;SDS011;3087;48.392;10.836;2023-03-13T02:34:27;3.97;;;2.60;;
6113;SDS011;3087;48.392;10.836;2023-03-13T02:36:56;4.40;;;2.10;;
6113;SDS011;3087;48.392;10.836;2023-03-13T02:39:23;3.37;;;2.27;;
6113;SDS011;3087;48.392;10.836;2023-03-13T02:41:50;3.47;;;1.97;;
6113;SDS011;3087;48.392;10.836;2023-03-13T02:44:17;2.40;;;2.00;;
6113;SDS011;3087;48.392;10.836;2023-03-13T02:46:47;7.60;;;2.60;;
6113;SDS011;3087;48.392;10.836;2023-03-13T02:49:27;3.83;;;2.23;;
6113;SDS011;3087;48.392;10.836;2023-03-13T02:51:55;53.07;;;29.07;;
6113;SDS011;3087;48.392;10.836;2023-03-13T02:54:25;37.27;;;20.57;;
6113;SDS011;3087;48.392;10.836;2023-03-13T02:56:56;24.63;;;14.30;;
6113;SDS011;3087;48.392;10.836;2023-03-13T02:59:24;24.63;;;13.73;;
6113;SDS011;3087;48.392;10.836;2023-03-13T03:01:50;28.23;;;15.57;;
6113;SDS011;3087;48.392;10.836;2023-03-13T03:04:17;20.93;;;15.00;;
6113;SDS011;3087;48.392;10.836;2023-03-13T03:06:46;52.20;;;32.53;;
6113;SDS011;3087;48.392;10.836;2023-03-13T03:09:12;11.87;;;7.47;;
6113;SDS011;3087;48.392;10.836;2023-03-13T03:11:37;7.60;;;4.90;;
6113;SDS011;3087;48.392;10.836;2023-03-13T03:14:03;6.03;;;4.67;;
6113;SDS011;3087;48.392;10.836;2023-03-13T03:16:29;3.53;;;2.80;;
6113;SDS011;3087;48.392;10.836;2023-03-13T03:18:55;5.60;;;2.87;;
6113;SDS011;3087;48.392;10.836;2023-03-13T03:21:21;5.03;;;2.20;;
6113;SDS011;3087;48.392;10.836;2023-03-13T03:23:48;5.37;;;2.10;;
6113;SDS011;3087;48.392;10.836;2023-03-13T03:26:14;4.00;;;2.00;;
6113;SDS011;3087;48.392;10.836;2023-03-13T03:28:40;2.70;;;1.97;;
6113;SDS011;3087;48.392;10.836;2023-03-13T03:31:07;3.37;;;2.30;;
6113;SDS011;3087;48.392;10.836;2023-03-13T03:33:34;3.10;;;2.00;;
6113;SDS011;3087;48.392;10.836;2023-03-13T03:36:02;3.20;;;1.80;;
6113;SDS011;3087;48.392;10.836;2023-03-13T03:38:30;4.03;;;1.90;;
6113;SDS011;3087;48.392;10.836;2023-03-13T03:40:56;3.27;;;1.93;;
6113;SDS011;3087;48.392;10.836;2023-03-13T03:43:21;2.30;;;1.90;;
6113;SDS011;3087;48.392;10.836;2023-03-13T03:45:47;3.83;;;1.90;;
6113;SDS011;3087;48.392;10.836;2023-03-13T03:48:12;4.23;;;1.90;;
6113;SDS011;3087;48.392;10.836;2023-03-13T03:50:38;4.47;;;1.90;;
6113;SDS011;3087;48.392;10.836;2023-03-13T03:53:04;3.90;;;1.93;;
6113;SDS011;3087;48.392;10.836;2023-03-13T03:55:29;3.53;;;2.03;;
6113;SDS011;3087;48.392;10.836;2023-03-13T03:57:55;5.37;;;1.70;;
6113;SDS011;3087;48.392;10.836;2023-03-13T04:00:20;2.40;;;1.80;;
6113;SDS011;3087;48.392;10.836;2023-03-13T04:02:46;4.37;;;1.80;;
6113;SDS011;3087;48.392;10.836;2023-03-13T04:05:13;2.67;;;1.80;;
6113;SDS011;3087;48.392;10.836;2023-03-13T04:07:39;2.97;;;1.93;;
6113;SDS011;3087;48.392;10.836;2023-03-13T04:10:04;5.73;;;2.00;;
6113;SDS011;3087;48.392;10.836;2023-03-13T04:12:30;3.60;;;2.10;;
6113;SDS011;3087;48.392;10.836;2023-03-13T04:14:56;2.17;;;1.83;;
6113;SDS011;3087;48.392;10.836;2023-03-13T04:17:21;2.37;;;1.60;;
6113;SDS011;3087;48.392;10.836;2023-03-13T04:19:47;3.73;;;1.70;;
6113;SDS011;3087;48.392;10.836;2023-03-13T04:22:13;3.33;;;1.60;;
6113;SDS011;3087;48.392;10.836;2023-03-13T04:24:38;4.17;;;2.00;;
6113;SDS011;3087;48.392;10.836;2023-03-13T04:27:04;3.33;;;1.80;;
6113;SDS011;3087;48.392;10.836;2023-03-13T04:29:31;2.47;;;1.60;;
6113;SDS011;3087;48.392;10.836;2023-03-13T04:31:56;5.03;;;2.40;;
6113;SDS011;3087;48.392;10.836;2023-03-13T04:34:22;3.53;;;1.70;;
6113;SDS011;3087;48.392;10.836;2023-03-13T04:36:48;2.43;;;1.83;;
6113;SDS011;3087;48.392;10.836;2023-03-13T04:39:13;3.23;;;2.00;;
6113;SDS011;3087;48.392;10.836;2023-03-13T04:41:39;2.80;;;1.70;;
6113;SDS011;3087;48.392;10.836;2023-03-13T04:44:05;3.77;;;1.80;;
6113;SDS011;3087;48.392;10.836;2023-03-13T04:46:30;3.07;;;2.00;;
6113;SDS011;3087;48.392;10.836;2023-03-13T04:48:57;3.03;;;2.37;;
6113;SDS011;3087;48.392;10.836;2023-03-13T04:51:23;2.60;;;1.77;;
6113;SDS011;3087;48.392;10.836;2023-03-13T04:53:48;6.13;;;2.00;;
6113;SDS011;3087;48.392;10.836;2023-03-13T04:56:19;3.17;;;2.33;;
6113;SDS011;3087;48.392;10.836;2023-03-13T04:58:47;6.83;;;3.93;;
6113;SDS011;3087;48.392;10.836;2023-03-13T05:01:12;3.97;;;2.25;;
6113;SDS011;3087;48.392;10.836;2023-03-13T05:03:38;3.63;;;1.90;;
6113;SDS011;3087;48.392;10.836;2023-03-13T05:06:03;4.93;;;2.23;;
6113;SDS011;3087;48.392;10.836;2023-03-13T05:08:29;3.70;;;2.30;;
6113;SDS011;3087;48.392;10.836;2023-03-13T05:10:55;4.00;;;2.20;;
6113;SDS011;3087;48.392;10.836;2023-03-13T05:13:21;5.67;;;2.10;;
6113;SDS011;3087;48.392;10.836;2023-03-13T05:15:47;3.10;;;2.00;;
6113;SDS011;3087;48.392;10.836;2023-03-13T05:18:12;4.33;;;2.20;;
6113;SDS011;3087;48.392;10.836;2023-03-13T05:20:38;3.03;;;1.87;;
6113;SDS011;3087;48.392;10.836;2023-03-13T05:23:04;2.33;;;1.70;;
6113;SDS011;3087;48.392;10.836;2023-03-13T05:25:29;3.10;;;2.10;;
6113;SDS011;3087;48.392;10.836;2023-03-13T05:27:55;4.00;;;2.10;;
6113;SDS011;3087;48.392;10.836;2023-03-13T05:30:20;7.00;;;2.27;;
6113;SDS011;3087;48.392;10.836;2023-03-13T05:32:46;3.67;;;2.03;;
6113;SDS011;3087;48.392;10.836;2023-03-13T05:35:11;4.93;;;1.90;;
6113;SDS011;3087;48.392;10.836;2023-03-13T05:37:37;4.60;;;1.90;;
6113;SDS011;3087;48.392;10.836;2023-03-13T05:40:03;3.10;;;1.93;;
6113;SDS011;3087;48.392;10.836;2023-03-13T05:42:29;2.85;;;1.70;;
6113;SDS011;3087;48.392;10.836;2023-03-13T05:44:55;3.47;;;1.98;;
6113;SDS011;3087;48.392;10.836;2023-03-13T05:47:20;2.38;;;1.77;;
6113;SDS011;3087;48.392;10.836;2023-03-13T05:49:46;4.60;;;1.98;;
6113;SDS011;3087;48.392;10.836;2023-03-13T05:52:11;5.73;;;2.30;;
6113;SDS011;3087;48.392;10.836;2023-03-13T05:54:37;6.20;;;2.20;;
6113;SDS011;3087;48.392;10.836;2023-03-13T05:57:03;8.80;;;2.20;;
6113;SDS011;3087;48.392;10.836;2023-03-13T05:59:28;6.93;;;2.00;;
6113;SDS011;3087;48.392;10.836;2023-03-13T06:01:54;3.13;;;2.13;;
6113;SDS011;3087;48.392;10.836;2023-03-13T06:04:19;4.60;;;1.70;;
6113;SDS011;3087;48.392;10.836;2023-03-13T06:06:45;4.43;;;2.03;;
6113;SDS011;3087;48.392;10.836;2023-03-13T06:09:11;6.57;;;2.10;;
6113;SDS011;3087;48.392;10.836;2023-03-13T06:11:37;2.22;;;2.03;;
6113;SDS011;3087;48.392;10.836;2023-03-13T06:14:02;8.05;;;2.47;;
6113;SDS011;3087;48.392;10.836;2023-03-13T06:16:28;3.78;;;1.98;;
6113;SDS011;3087;48.392;10.836;2023-03-13T06:18:54;2.38;;;2.10;;
6113;SDS011;3087;48.392;10.836;2023-03-13T06:21:19;3.67;;;1.83;;
6113;SDS011;3087;48.392;10.836;2023-03-13T06:23:45;3.15;;;1.80;;
6113;SDS011;3087;48.392;10.836;2023-03-13T06:26:11;5.55;;;2.20;;
6113;SDS011;3087;48.392;10.836;2023-03-13T06:28:36;3.10;;;2.33;;
6113;SDS011;3087;48.392;10.836;2023-03-13T06:31:03;2.95;;;2.65;;
6113;SDS011;3087;48.392;10.836;2023-03-13T06:33:30;2.50;;;1.73;;
6113;SDS011;3087;48.392;10.836;2023-03-13T06:35:56;2.80;;;2.20;;
6113;SDS011;3087;48.392;10.836;2023-03-13T06:38:22;2.60;;;1.83;;
6113;SDS011;3087;48.392;10.836;2023-03-13T06:40:49;2.60;;;1.85;;
6113;SDS011;3087;48.392;10.836;2023-03-13T06:43:14;3.00;;;1.65;;
6113;SDS011;3087;48.392;10.836;2023-03-13T06:45:40;1.73;;;1.50;;
6113;SDS011;3087;48.392;10.836;2023-03-13T06:48:05;2.08;;;1.80;;
6113;SDS011;3087;48.392;10.836;2023-03-13T06:50:31;3.50;;;1.55;;
6113;SDS011;3087;48.392;10.836;2023-03-13T06:52:57;4.13;;;2.60;;
6113;SDS011;3087;48.392;10.836;2023-03-13T06:55:23;2.58;;;2.05;;
6113;SDS011;3087;48.392;10.836;2023-03-13T06:57:49;3.45;;;1.77;;
6113;SDS011;3087;48.392;10.836;2023-03-13T07:00:16;3.55;;;2.10;;
6113;SDS011;3087;48.392;10.836;2023-03-13T07:02:42;2.22;;;2.03;;
6113;SDS011;3087;48.392;10.836;2023-03-13T07:05:07;2.42;;;2.22;;
6113;SDS011;3087;48.392;10.836;2023-03-13T07:07:33;2.83;;;2.10;;
6113;SDS011;3087;48.392;10.836;2023-03-13T07:09:59;2.38;;;2.17;;
6113;SDS011;3087;48.392;10.836;2023-03-13T07:12:24;2.35;;;1.80;;
6113;SDS011;3087;48.392;10.836;2023-03-13T07:14:50;2.28;;;1.73;;
6113;SDS011;3087;48.392;10.836;2023-03-13T07:17:16;2.40;;;2.13;;
6113;SDS011;3087;48.392;10.836;2023-03-13T07:19:41;3.10;;;1.80;;
6113;SDS011;3087;48.392;10.836;2023-03-13T07:22:07;2.83;;;1.70;;
6113;SDS011;3087;48.392;10.836;2023-03-13T07:24:33;2.33;;;1.88;;
6113;SDS011;3087;48.392;10.836;2023-03-13T07:26:58;2.50;;;1.88;;
6113;SDS011;3087;48.392;10.836;2023-03-13T07:29:24;3.15;;;2.20;;
6113;SDS011;3087;48.392;10.836;2023-03-13T07:31:49;1.90;;;1.67;;
6113;SDS011;3087;48.392;10.836;2023-03-13T07:34:15;1.92;;;1.75;;
6113;SDS011;3087;48.392;10.836;2023-03-13T07:36:41;3.17;;;1.58;;
6113;SDS011;3087;48.392;10.836;2023-03-13T07:39:07;2.17;;;1.77;;
6113;SDS011;3087;48.392;10.836;2023-03-13T07:41:33;1.90;;;1.70;;
6113;SDS011;3087;48.392;10.836;2023-03-13T07:43:58;2.50;;;1.60;;
6113;SDS011;3087;48.392;10.836;2023-03-13T07:46:24;3.13;;;1.70;;
6113;SDS011;3087;48.392;10.836;2023-03-13T07:48:50;2.55;;;2.35;;
6113;SDS011;3087;48.392;10.836;2023-03-13T07:51:17;4.70;;;1.73;;
6113;SDS011;3087;48.392;10.836;2023-03-13T07:53:45;2.20;;;1.80;;
6113;SDS011;3087;48.392;10.836;2023-03-13T07:56:15;2.13;;;1.92;;
6113;SDS011;3087;48.392;10.836;2023-03-13T07:58:42;2.40;;;2.20;;
6113;SDS011;3087;48.392;10.836;2023-03-13T08:03:37;1.95;;;1.73;;
6113;SDS011;3087;48.392;10.836;2023-03-13T08:06:04;2.10;;;1.90;;
6113;SDS011;3087;48.392;10.836;2023-03-13T08:08:32;2.15;;;1.95;;
6113;SDS011;3087;48.392;10.836;2023-03-13T08:11:01;4.10;;;1.80;;
6113;SDS011;3087;48.392;10.836;2023-03-13T08:13:34;2.30;;;1.63;;
6113;SDS011;3087;48.392;10.836;2023-03-13T08:16:04;2.05;;;1.58;;
6113;SDS011;3087;48.392;10.836;2023-03-13T08:18:35;1.60;;;1.50;;
6113;SDS011;3087;48.392;10.836;2023-03-13T08:21:05;1.90;;;1.70;;
6113;SDS011;3087;48.392;10.836;2023-03-13T08:23:33;2.08;;;1.85;;
6113;SDS011;3087;48.392;10.836;2023-03-13T08:26:06;2.58;;;1.77;;
6113;SDS011;3087;48.392;10.836;2023-03-13T08:28:34;2.55;;;1.67;;
6113;SDS011;3087;48.392;10.836;2023-03-13T08:31:10;1.95;;;1.42;;
6113;SDS011;3087;48.392;10.836;2023-03-13T08:33:41;1.92;;;1.80;;
6113;SDS011;3087;48.392;10.836;2023-03-13T08:36:18;1.60;;;1.50;;
6113;SDS011;3087;48.392;10.836;2023-03-13T08:38:47;2.58;;;1.90;;
6113;SDS011;3087;48.392;10.836;2023-03-13T08:41:14;3.85;;;1.85;;
6113;SDS011;3087;48.392;10.836;2023-03-13T08:43:44;3.83;;;2.00;;
6113;SDS011;3087;48.392;10.836;2023-03-13T08:46:10;3.08;;;1.90;;
6113;SDS011;3087;48.392;10.836;2023-03-13T08:48:35;2.33;;;1.73;;
6113;SDS011;3087;48.392;10.836;2023-03-13T08:53:27;2.30;;;2.10;;
6113;SDS011;3087;48.392;10.836;2023-03-13T08:55:53;1.73;;;1.50;;
6113;SDS011;3087;48.392;10.836;2023-03-13T08:58:19;1.60;;;1.50;;
6113;SDS011;3087;48.392;10.836;2023-03-13T09:00:44;2.25;;;1.88;;
6113;SDS011;3087;48.392;10.836;2023-03-13T09:03:10;2.50;;;1.75;;
6113;SDS011;3087;48.392;10.836;2023-03-13T09:05:36;1.50;;;1.40;;
6113;SDS011;3087;48.392;10.836;2023-03-13T09:08:02;2.10;;;1.90;;
6113;SDS011;3087;48.392;10.836;2023-03-13T09:10:28;3.28;;;1.98;;
6113;SDS011;3087;48.392;10.836;2023-03-13T09:12:53;2.88;;;1.80;;
6113;SDS011;3087;48.392;10.836;2023-03-13T09:15:19;3.67;;;1.73;;
6113;SDS011;3087;48.392;10.836;2023-03-13T09:17:45;9.68;;;3.25;;
6113;SDS011;3087;48.392;10.836;2023-03-13T09:20:10;2.42;;;1.80;;
6113;SDS011;3087;48.392;10.836;2023-03-13T09:22:36;2.25;;;1.60;;
6113;SDS011;3087;48.392;10.836;2023-03-13T09:25:01;3.00;;;2.33;;
6113;SDS011;3087;48.392;10.836;2023-03-13T09:27:27;1.90;;;1.60;;
6113;SDS011;3087;48.392;10.836;2023-03-13T09:29:53;2.60;;;1.67;;
6113;SDS011;3087;48.392;10.836;2023-03-13T09:32:19;2.33;;;1.63;;
6113;SDS011;3087;48.392;10.836;2023-03-13T09:34:45;2.33;;;2.03;;
6113;SDS011;3087;48.392;10.836;2023-03-13T09:37:10;4.28;;;2.50;;
6113;SDS011;3087;48.392;10.836;2023-03-13T09:39:36;1.80;;;1.70;;
6113;SDS011;3087;48.392;10.836;2023-03-13T09:44:58;2.30;;;1.50;;
6113;SDS011;3087;48.392;10.836;2023-03-13T09:47:47;2.38;;;1.60;;
6113;SDS011;3087;48.392;10.836;2023-03-13T09:50:24;1.58;;;1.48;;
6113;SDS011;3087;48.392;10.836;2023-03-13T09:52:58;3.33;;;1.60;;
6113;SDS011;3087;48.392;10.836;2023-03-13T09:55:30;2.88;;;1.80;;
6113;SDS011;3087;48.392;10.836;2023-03-13T09:58:01;4.90;;;1.80;;
6113;SDS011;3087;48.392;10.836;2023-03-13T10:00:34;3.15;;;1.73;;
6113;SDS011;3087;48.392;10.836;2023-03-13T10:05:53;2.45;;;1.48;;
6113;SDS011;3087;48.392;10.836;2023-03-13T10:08:22;2.50;;;1.58;;
6113;SDS011;3087;48.392;10.836;2023-03-13T10:10:54;2.13;;;1.65;;
6113;SDS011;3087;48.392;10.836;2023-03-13T10:16:28;2.00;;;1.60;;
6113;SDS011;3087;48.392;10.836;2023-03-13T10:18:56;1.98;;;1.70;;
6113;SDS011;3087;48.392;10.836;2023-03-13T10:21:25;2.90;;;1.80;;
6113;SDS011;3087;48.392;10.836;2023-03-13T10:23:58;2.70;;;2.22;;
6113;SDS011;3087;48.392;10.836;2023-03-13T10:26:31;1.70;;;1.52;;
6113;SDS011;3087;48.392;10.836;2023-03-13T10:31:51;2.22;;;1.63;;
6113;SDS011;3087;48.392;10.836;2023-03-13T10:34:24;2.40;;;2.00;;
6113;SDS011;3087;48.392;10.836;2023-03-13T10:36:56;4.53;;;1.60;;
6113;SDS011;3087;48.392;10.836;2023-03-13T10:39:25;1.80;;;1.50;;
6113;SDS011;3087;48.392;10.836;2023-03-13T10:44:47;2.22;;;1.45;;
6113;SDS011;3087;48.392;10.836;2023-03-13T10:47:13;2.33;;;1.55;;
6113;SDS011;3087;48.392;10.836;2023-03-13T10:49:50;2.00;;;1.50;;
6113;SDS011;3087;48.392;10.836;2023-03-13T10:55:04;3.67;;;1.75;;
6113;SDS011;3087;48.392;10.836;2023-03-13T10:57:34;3.10;;;1.60;;
6113;SDS011;3087;48.392;10.836;2023-03-13T11:00:03;2.53;;;1.70;;
6113;SDS011;3087;48.392;10.836;2023-03-13T11:02:50;1.50;;;1.40;;
6113;SDS011;3087;48.392;10.836;2023-03-13T11:07:51;3.50;;;1.67;;
6113;SDS011;3087;48.392;10.836;2023-03-13T11:10:27;2.67;;;1.67;;
6113;SDS011;3087;48.392;10.836;2023-03-13T11:12:54;2.78;;;1.65;;
6113;SDS011;3087;48.392;10.836;2023-03-13T11:15:28;1.77;;;1.50;;
6113;SDS011;3087;48.392;10.836;2023-03-13T11:20:49;2.88;;;1.77;;
6113;SDS011;3087;48.392;10.836;2023-03-13T11:23:51;2.03;;;1.63;;
6113;SDS011;3087;48.392;10.836;2023-03-13T11:26:32;4.15;;;1.80;;
6113;SDS011;3087;48.392;10.836;2023-03-13T11:29:08;2.75;;;1.70;;
6113;SDS011;3087;48.392;10.836;2023-03-13T11:31:59;1.60;;;1.48;;
6113;SDS011;3087;48.392;10.836;2023-03-13T11:37:22;4.10;;;1.75;;
6113;SDS011;3087;48.392;10.836;2023-03-13T11:51:02;2.60;;;1.73;;
6113;SDS011;3087;48.392;10.836;2023-03-13T11:56:22;3.17;;;1.60;;
6113;SDS011;3087;48.392;10.836;2023-03-13T11:59:02;4.38;;;2.00;;
6113;SDS011;3087;48.392;10.836;2023-03-13T12:01:54;2.38;;;1.85;;
6113;SDS011;3087;48.392;10.836;2023-03-13T12:10:33;6.40;;;2.10;;
6113;SDS011;3087;48.392;10.836;2023-03-13T12:13:04;4.15;;;1.63;;
6113;SDS011;3087;48.392;10.836;2023-03-13T12:15:37;2.85;;;1.65;;
6113;SDS011;3087;48.392;10.836;2023-03-13T12:20:50;2.90;;;1.90;;
6113;SDS011;3087;48.392;10.836;2023-03-13T12:23:39;2.05;;;1.77;;
6113;SDS011;3087;48.392;10.836;2023-03-13T12:26:17;2.70;;;2.00;;
6113;SDS011;3087;48.392;10.836;2023-03-13T12:28:50;4.28;;;2.30;;
6113;SDS011;3087;48.392;10.836;2023-03-13T12:31:28;1.98;;;1.65;;
6113;SDS011;3087;48.392;10.836;2023-03-13T12:33:59;2.20;;;1.95;;
6113;SDS011;3087;48.392;10.836;2023-03-13T12:39:20;3.50;;;1.90;;
6113;SDS011;3087;48.392;10.836;2023-03-13T12:44:46;3.58;;;1.60;;
6113;SDS011;3087;48.392;10.836;2023-03-13T12:52:48;2.35;;;1.83;;
6113;SDS011;3087;48.392;10.836;2023-03-13T12:58:22;2.70;;;1.83;;
6113;SDS011;3087;48.392;10.836;2023-03-13T13:01:13;3.05;;;1.67;;
6113;SDS011;3087;48.392;10.836;2023-03-13T13:06:27;3.70;;;2.05;;
6113;SDS011;3087;48.392;10.836;2023-03-13T13:09:57;2.15;;;1.60;;
6113;SDS011;3087;48.392;10.836;2023-03-13T13:12:24;2.13;;;1.58;;
6113;SDS011;3087;48.392;10.836;2023-03-13T13:23:33;4.97;;;3.40;;
6113;SDS011;3087;48.392;10.836;2023-03-13T13:25:51;3.50;;;2.03;;
6113;SDS011;3087;48.392;10.836;2023-03-13T13:28:23;2.88;;;2.13;;
6113;SDS011;3087;48.392;10.836;2023-03-13T13:30:56;2.63;;;2.10;;
6113;SDS011;3087;48.392;10.836;2023-03-13T13:38:36;2.20;;;1.77;;
6113;SDS011;3087;48.392;10.836;2023-03-13T13:48:32;3.13;;;2.03;;
6113;SDS011;3087;48.392;10.836;2023-03-13T13:56:45;2.05;;;1.85;;
6113;SDS011;3087;48.392;10.836;2023-03-13T14:01:45;2.95;;;1.98;;
6113;SDS011;3087;48.392;10.836;2023-03-13T14:06:56;2.67;;;2.08;;
6113;SDS011;3087;48.392;10.836;2023-03-13T14:09:32;5.13;;;2.00;;
6113;SDS011;3087;48.392;10.836;2023-03-13T14:12:31;6.53;;;1.98;;
6113;SDS011;3087;48.392;10.836;2023-03-13T14:23:33;2.95;;;1.90;;
6113;SDS011;3087;48.392;10.836;2023-03-13T14:26:21;3.83;;;1.63;;
6113;SDS011;3087;48.392;10.836;2023-03-13T14:28:50;3.75;;;1.77;;
6113;SDS011;3087;48.392;10.836;2023-03-13T14:31:28;1.92;;;1.58;;
6113;SDS011;3087;48.392;10.836;2023-03-13T14:33:56;2.75;;;2.13;;
6113;SDS011;3087;48.392;10.836;2023-03-13T14:36:24;3.72;;;1.70;;
6113;SDS011;3087;48.392;10.836;2023-03-13T14:38:55;4.82;;;1.80;;
6113;SDS011;3087;48.392;10.836;2023-03-13T14:44:24;3.05;;;2.08;;
6113;SDS011;3087;48.392;10.836;2023-03-13T14:46:56;2.28;;;1.58;;
6113;SDS011;3087;48.392;10.836;2023-03-13T14:49:25;3.03;;;1.67;;
6113;SDS011;3087;48.392;10.836;2023-03-13T14:52:03;1.52;;;1.40;;
6113;SDS011;3087;48.392;10.836;2023-03-13T14:54:34;3.05;;;1.60;;
6113;SDS011;3087;48.392;10.836;2023-03-13T14:57:20;1.90;;;1.63;;
6113;SDS011;3087;48.392;10.836;2023-03-13T14:59:47;1.40;;;1.30;;
6113;SDS011;3087;48.392;10.836;2023-03-13T15:02:25;2.45;;;1.60;;
6113;SDS011;3087;48.392;10.836;2023-03-13T15:04:57;3.20;;;1.50;;
6113;SDS011;3087;48.392;10.836;2023-03-13T15:10:21;1.70;;;1.52;;
6113;SDS011;3087;48.392;10.836;2023-03-13T15:12:55;3.65;;;1.90;;
6113;SDS011;3087;48.392;10.836;2023-03-13T15:15:21;2.47;;;1.70;;
6113;SDS011;3087;48.392;10.836;2023-03-13T15:17:47;4.65;;;1.65;;
6113;SDS011;3087;48.392;10.836;2023-03-13T15:20:13;4.60;;;1.60;;
6113;SDS011;3087;48.392;10.836;2023-03-13T15:22:40;4.30;;;1.50;;
6113;SDS011;3087;48.392;10.836;2023-03-13T15:25:18;1.70;;;1.60;;
6113;SDS011;3087;48.392;10.836;2023-03-13T15:27:45;3.88;;;1.63;;
6113;SDS011;3087;48.392;10.836;2023-03-13T15:30:15;2.92;;;2.25;;
6113;SDS011;3087;48.392;10.836;2023-03-13T15:32:43;5.60;;;1.65;;
6113;SDS011;3087;48.392;10.836;2023-03-13T15:35:27;2.45;;;1.60;;
6113;SDS011;3087;48.392;10.836;2023-03-13T15:37:55;1.70;;;1.42;;
6113;SDS011;3087;48.392;10.836;2023-03-13T15:40:22;2.85;;;1.40;;
6113;SDS011;3087;48.392;10.836;2023-03-13T15:42:49;2.40;;;1.60;;
6113;SDS011;3087;48.392;10.836;2023-03-13T15:45:15;2.75;;;1.65;;
6113;SDS011;3087;48.392;10.836;2023-03-13T15:47:43;1.75;;;1.65;;
6113;SDS011;3087;48.392;10.836;2023-03-13T15:50:12;2.60;;;1.50;;
6113;SDS011;3087;48.392;10.836;2023-03-13T15:52:43;2.45;;;1.52;;
6113;SDS011;3087;48.392;10.836;2023-03-13T15:55:10;3.35;;;1.75;;
6113;SDS011;3087;48.392;10.836;2023-03-13T15:57:36;2.00;;;1.85;;
6113;SDS011;3087;48.392;10.836;2023-03-13T16:00:12;3.28;;;1.25;;
6113;SDS011;3087;48.392;10.836;2023-03-13T16:02:44;2.58;;;1.40;;
6113;SDS011;3087;48.392;10.836;2023-03-13T16:05:10;1.52;;;1.42;;
6113;SDS011;3087;48.392;10.836;2023-03-13T16:07:36;2.05;;;1.85;;
6113;SDS011;3087;48.392;10.836;2023-03-13T16:10:03;2.25;;;1.10;;
6113;SDS011;3087;48.392;10.836;2023-03-13T16:12:31;1.85;;;1.63;;
6113;SDS011;3087;48.392;10.836;2023-03-13T16:14:56;1.40;;;1.30;;
6113;SDS011;3087;48.392;10.836;2023-03-13T16:17:22;2.17;;;1.70;;
6113;SDS011;3087;48.392;10.836;2023-03-13T16:19:49;1.80;;;1.50;;
6113;SDS011;3087;48.392;10.836;2023-03-13T16:22:15;2.20;;;1.83;;
6113;SDS011;3087;48.392;10.836;2023-03-13T16:24:41;1.73;;;1.63;;
6113;SDS011;3087;48.392;10.836;2023-03-13T16:27:11;2.08;;;1.80;;
6113;SDS011;3087;48.392;10.836;2023-03-13T16:29:38;2.22;;;1.77;;
6113;SDS011;3087;48.392;10.836;2023-03-13T16:32:04;1.80;;;1.50;;
6113;SDS011;3087;48.392;10.836;2023-03-13T16:34:31;1.70;;;1.60;;
6113;SDS011;3087;48.392;10.836;2023-03-13T16:36:56;2.13;;;1.50;;
6113;SDS011;3087;48.392;10.836;2023-03-13T16:39:22;2.33;;;1.60;;
6113;SDS011;3087;48.392;10.836;2023-03-13T16:41:48;1.40;;;1.30;;
6113;SDS011;3087;48.392;10.836;2023-03-13T16:44:13;2.08;;;1.52;;
6113;SDS011;3087;48.392;10.836;2023-03-13T16:46:40;2.13;;;1.60;;
6113;SDS011;3087;48.392;10.836;2023-03-13T16:49:10;2.00;;;1.65;;
6113;SDS011;3087;48.392;10.836;2023-03-13T16:51:38;2.22;;;1.55;;
6113;SDS011;3087;48.392;10.836;2023-03-13T16:54:04;2.38;;;1.88;;
6113;SDS011;3087;48.392;10.836;2023-03-13T16:56:36;2.97;;;2.00;;
6113;SDS011;3087;48.392;10.836;2023-03-13T16:59:05;3.45;;;1.95;;
6113;SDS011;3087;48.392;10.836;2023-03-13T17:01:35;1.83;;;1.63;;
6113;SDS011;3087;48.392;10.836;2023-03-13T17:04:01;1.90;;;1.40;;
6113;SDS011;3087;48.392;10.836;2023-03-13T17:06:34;2.03;;;1.42;;
6113;SDS011;3087;48.392;10.836;2023-03-13T17:09:02;2.28;;;1.92;;
6113;SDS011;3087;48.392;10.836;2023-03-13T17:11:31;2.50;;;1.48;;
6113;SDS011;3087;48.392;10.836;2023-03-13T17:13:57;2.28;;;1.80;;
6113;SDS011;3087;48.392;10.836;2023-03-13T17:16:30;2.20;;;2.00;;
6113;SDS011;3087;48.392;10.836;2023-03-13T17:18:58;2.20;;;2.00;;
6113;SDS011;3087;48.392;10.836;2023-03-13T17:21:25;2.08;;;1.77;;
6113;SDS011;3087;48.392;10.836;2023-03-13T17:23:53;1.58;;;1.48;;